sensor_id;sensor_type;location;lat;lon;timestamp;noise_LAeq;noise_LA_min;noise_LA_max;noise_LA01;noise_LA95
66747;Laerm;53658;50.742;10.864;2023-06-04T00:02:18;39.10;35.66;41.38;;
66747;Laerm;53658;50.742;10.864;2023-06-04T00:04:44;39.00;36.20;41.30;;
66747;Laerm;53658;50.742;10.864;2023-06-04T00:07:10;38.98;36.45;41.22;;
66747;Laerm;53658;50.742;10.864;2023-06-04T00:09:36;39.04;36.20;41.38;;
66747;Laerm;53658;50.742;10.864;2023-06-04T00:12:02;39.17;36.20;41.96;;
66747;Laerm;53658;50.742;10.864;2023-06-04T00:14:28;39.19;36.20;41.46;;
66747;Laerm;53658;50.742;10.864;2023-06-04T00:16:54;39.12;36.20;42.59;;
66747;Laerm;53658;50.742;10.864;2023-06-04T00:19:19;39.17;36.20;41.22;;
66747;Laerm;53658;50.742;10.864;2023-06-04T00:21:46;39.31;36.45;41.68;;
66747;Laerm;53658;50.742;10.864;2023-06-04T00:24:12;39.17;35.94;41.22;;
66747;Laerm;53658;50.742;10.864;2023-06-04T00:26:40;39.16;35.94;41.96;;
66747;Laerm;53658;50.742;10.864;2023-06-04T00:29:06;39.05;36.20;41.14;;
66747;Laerm;53658;50.742;10.864;2023-06-04T00:31:32;38.91;35.66;41.06;;
66747;Laerm;53658;50.742;10.864;2023-06-04T00:33:58;38.85;35.94;40.89;;
66747;Laerm;53658;50.742;10.864;2023-06-04T00:36:24;38.84;35.04;40.98;;
66747;Laerm;53658;50.742;10.864;2023-06-04T00:38:50;38.92;35.94;41.61;;
66747;Laerm;53658;50.742;10.864;2023-06-04T00:41:16;38.77;35.86;41.14;;
66747;Laerm;53658;50.742;10.864;2023-06-04T00:43:42;38.75;35.94;49.11;;
66747;Laerm;53658;50.742;10.864;2023-06-04T00:46:11;40.64;35.66;63.91;;
66747;Laerm;53658;50.742;10.864;2023-06-04T00:48:44;43.27;35.36;62.61;;
66747;Laerm;53658;50.742;10.864;2023-06-04T00:51:11;40.63;36.20;63.03;;
66747;Laerm;53658;50.742;10.864;2023-06-04T00:53:38;39.34;35.66;41.46;;
66747;Laerm;53658;50.742;10.864;2023-06-04T00:56:05;39.20;35.94;41.46;;
66747;Laerm;53658;50.742;10.864;2023-06-04T00:58:37;38.97;35.66;41.14;;
66747;Laerm;53658;50.742;10.864;2023-06-04T01:01:10;38.92;35.36;41.06;;
66747;Laerm;53658;50.742;10.864;2023-06-04T01:03:42;38.98;35.94;41.30;;
66747;Laerm;53658;50.742;10.864;2023-06-04T01:08:57;38.76;35.94;41.06;;
66747;Laerm;53658;50.742;10.864;2023-06-04T01:11:34;38.80;35.04;41.22;;
66747;Laerm;53658;50.742;10.864;2023-06-04T01:14:02;38.78;35.36;41.14;;
66747;Laerm;53658;50.742;10.864;2023-06-04T01:16:33;38.75;34.69;41.38;;
66747;Laerm;53658;50.742;10.864;2023-06-04T01:19:04;38.70;35.66;41.53;;
66747;Laerm;53658;50.742;10.864;2023-06-04T01:21:37;38.80;35.66;41.06;;
66747;Laerm;53658;50.742;10.864;2023-06-04T01:24:05;38.63;35.36;52.24;;
66747;Laerm;53658;50.742;10.864;2023-06-04T01:26:33;38.66;35.04;41.30;;
66747;Laerm;53658;50.742;10.864;2023-06-04T01:29:01;38.76;34.69;48.55;;
66747;Laerm;53658;50.742;10.864;2023-06-04T01:31:28;38.75;35.66;52.28;;
66747;Laerm;53658;50.742;10.864;2023-06-04T01:33:58;38.82;35.59;59.48;;
66747;Laerm;53658;50.742;10.864;2023-06-04T01:36:25;38.66;35.36;55.58;;
66747;Laerm;53658;50.742;10.864;2023-06-04T01:38:51;38.61;35.36;48.63;;
66747;Laerm;53658;50.742;10.864;2023-06-04T01:41:17;38.49;35.36;52.37;;
66747;Laerm;53658;50.742;10.864;2023-06-04T01:43:43;38.56;35.04;59.06;;
66747;Laerm;53658;50.742;10.864;2023-06-04T01:46:10;38.59;35.36;49.50;;
66747;Laerm;53658;50.742;10.864;2023-06-04T01:48:35;38.74;35.36;49.96;;
66747;Laerm;53658;50.742;10.864;2023-06-04T01:51:02;39.07;32.35;65.79;;
66747;Laerm;53658;50.742;10.864;2023-06-04T01:53:29;38.48;34.69;50.47;;
66747;Laerm;53658;50.742;10.864;2023-06-04T01:55:55;39.09;35.66;65.05;;
66747;Laerm;53658;50.742;10.864;2023-06-04T01:58:22;39.33;34.69;68.11;;
66747;Laerm;53658;50.742;10.864;2023-06-04T02:00:53;38.56;35.59;49.85;;
66747;Laerm;53658;50.742;10.864;2023-06-04T02:03:21;39.12;34.69;66.96;;
66747;Laerm;53658;50.742;10.864;2023-06-04T02:05:48;39.63;35.01;69.23;;
66747;Laerm;53658;50.742;10.864;2023-06-04T02:08:15;38.49;35.04;49.44;;
66747;Laerm;53658;50.742;10.864;2023-06-04T02:10:48;38.49;35.04;53.02;;
66747;Laerm;53658;50.742;10.864;2023-06-04T02:13:14;38.64;34.69;59.23;;
66747;Laerm;53658;50.742;10.864;2023-06-04T02:15:41;38.82;34.69;64.60;;
66747;Laerm;53658;50.742;10.864;2023-06-04T02:18:18;38.66;34.69;60.97;;
66747;Laerm;53658;50.742;10.864;2023-06-04T02:20:48;39.23;34.69;66.17;;
66747;Laerm;53658;50.742;10.864;2023-06-04T02:23:15;38.72;35.36;57.59;;
66747;Laerm;53658;50.742;10.864;2023-06-04T02:25:42;39.76;28.67;69.70;;
66747;Laerm;53658;50.742;10.864;2023-06-04T02:28:10;38.89;35.04;63.69;;
66747;Laerm;53658;50.742;10.864;2023-06-04T02:30:36;39.41;34.31;68.13;;
66747;Laerm;53658;50.742;10.864;2023-06-04T02:33:02;38.48;34.69;56.76;;
66747;Laerm;53658;50.742;10.864;2023-06-04T02:35:30;39.41;34.31;64.04;;
66747;Laerm;53658;50.742;10.864;2023-06-04T02:37:57;40.21;34.69;65.44;;
66747;Laerm;53658;50.742;10.864;2023-06-04T02:40:26;45.39;33.44;70.26;;
66747;Laerm;53658;50.742;10.864;2023-06-04T02:42:54;40.48;32.93;70.14;;
66747;Laerm;53658;50.742;10.864;2023-06-04T02:45:20;39.35;33.90;68.85;;
66747;Laerm;53658;50.742;10.864;2023-06-04T02:47:46;60.59;33.90;96.76;;
66747;Laerm;53658;50.742;10.864;2023-06-04T02:50:14;38.75;34.31;63.71;;
66747;Laerm;53658;50.742;10.864;2023-06-04T02:52:41;40.18;34.69;71.79;;
66747;Laerm;53658;50.742;10.864;2023-06-04T02:55:08;39.84;34.31;70.88;;
66747;Laerm;53658;50.742;10.864;2023-06-04T02:57:35;39.75;34.69;69.38;;
66747;Laerm;53658;50.742;10.864;2023-06-04T03:00:01;38.93;33.44;66.62;;
66747;Laerm;53658;50.742;10.864;2023-06-04T03:02:33;48.10;35.04;81.90;;
66747;Laerm;53658;50.742;10.864;2023-06-04T03:04:59;41.37;28.67;71.96;;
66747;Laerm;53658;50.742;10.864;2023-06-04T03:07:25;38.76;35.36;55.63;;
66747;Laerm;53658;50.742;10.864;2023-06-04T03:09:51;39.88;34.31;66.07;;
66747;Laerm;53658;50.742;10.864;2023-06-04T03:12:17;39.05;35.04;62.08;;
66747;Laerm;53658;50.742;10.864;2023-06-04T03:14:43;39.66;35.36;65.93;;
66747;Laerm;53658;50.742;10.864;2023-06-04T03:17:09;40.57;26.91;72.19;;
66747;Laerm;53658;50.742;10.864;2023-06-04T03:19:40;38.87;34.31;61.83;;
66747;Laerm;53658;50.742;10.864;2023-06-04T03:22:08;39.80;29.92;67.04;;
66747;Laerm;53658;50.742;10.864;2023-06-04T03:24:36;39.40;33.90;68.00;;
66747;Laerm;53658;50.742;10.864;2023-06-04T03:27:03;40.35;33.90;68.33;;
66747;Laerm;53658;50.742;10.864;2023-06-04T03:29:31;39.99;33.44;70.38;;
66747;Laerm;53658;50.742;10.864;2023-06-04T03:32:00;39.17;34.69;64.26;;
66747;Laerm;53658;50.742;10.864;2023-06-04T03:34:26;39.61;34.69;66.68;;
66747;Laerm;53658;50.742;10.864;2023-06-04T03:36:56;40.78;31.68;71.45;;
66747;Laerm;53658;50.742;10.864;2023-06-04T03:39:21;39.86;32.58;69.69;;
66747;Laerm;53658;50.742;10.864;2023-06-04T03:41:48;41.98;32.35;72.14;;
66747;Laerm;53658;50.742;10.864;2023-06-04T03:44:17;40.19;33.90;71.03;;
66747;Laerm;53658;50.742;10.864;2023-06-04T03:46:45;40.40;34.31;70.67;;
66747;Laerm;53658;50.742;10.864;2023-06-04T03:49:13;39.22;34.31;66.93;;
66747;Laerm;53658;50.742;10.864;2023-06-04T03:51:41;40.40;31.68;68.88;;
66747;Laerm;53658;50.742;10.864;2023-06-04T03:54:07;41.92;26.91;72.27;;
66747;Laerm;53658;50.742;10.864;2023-06-04T03:56:34;40.28;33.90;71.47;;
66747;Laerm;53658;50.742;10.864;2023-06-04T03:59:01;39.50;33.90;67.39;;
66747;Laerm;53658;50.742;10.864;2023-06-04T04:01:27;39.97;31.68;68.66;;
66747;Laerm;53658;50.742;10.864;2023-06-04T04:03:55;38.73;34.31;62.48;;
66747;Laerm;53658;50.742;10.864;2023-06-04T04:06:21;41.44;32.93;71.40;;
66747;Laerm;53658;50.742;10.864;2023-06-04T04:08:47;40.36;33.90;70.27;;
66747;Laerm;53658;50.742;10.864;2023-06-04T04:11:17;40.44;26.91;71.26;;
66747;Laerm;53658;50.742;10.864;2023-06-04T04:13:45;40.65;34.69;69.78;;
66747;Laerm;53658;50.742;10.864;2023-06-04T04:16:12;41.08;33.90;70.47;;
66747;Laerm;53658;50.742;10.864;2023-06-04T04:18:41;39.78;33.97;68.48;;
66747;Laerm;53658;50.742;10.864;2023-06-04T04:21:09;40.63;30.89;69.48;;
66747;Laerm;53658;50.742;10.864;2023-06-04T04:23:38;40.45;34.31;70.31;;
66747;Laerm;53658;50.742;10.864;2023-06-04T04:26:08;40.46;33.55;69.68;;
66747;Laerm;53658;50.742;10.864;2023-06-04T04:28:36;40.41;32.93;69.73;;
66747;Laerm;53658;50.742;10.864;2023-06-04T04:31:02;38.84;34.31;62.05;;
66747;Laerm;53658;50.742;10.864;2023-06-04T04:33:32;38.96;34.31;63.53;;
66747;Laerm;53658;50.742;10.864;2023-06-04T04:35:59;39.15;32.93;65.33;;
66747;Laerm;53658;50.742;10.864;2023-06-04T04:38:28;38.96;33.44;66.62;;
66747;Laerm;53658;50.742;10.864;2023-06-04T04:41:01;39.15;34.31;68.75;;
66747;Laerm;53658;50.742;10.864;2023-06-04T04:43:29;39.51;32.93;69.17;;
66747;Laerm;53658;50.742;10.864;2023-06-04T04:45:56;38.10;33.90;55.16;;
66747;Laerm;53658;50.742;10.864;2023-06-04T04:48:23;37.97;34.69;40.62;;
66747;Laerm;53658;50.742;10.864;2023-06-04T04:50:49;38.07;34.31;45.91;;
66747;Laerm;53658;50.742;10.864;2023-06-04T04:53:15;38.16;35.04;44.83;;
66747;Laerm;53658;50.742;10.864;2023-06-04T04:55:41;38.14;34.31;42.41;;
66747;Laerm;53658;50.742;10.864;2023-06-04T04:58:07;38.13;35.04;40.23;;
66747;Laerm;53658;50.742;10.864;2023-06-04T05:00:33;38.19;35.04;40.71;;
66747;Laerm;53658;50.742;10.864;2023-06-04T05:03:00;38.31;34.69;40.80;;
66747;Laerm;53658;50.742;10.864;2023-06-04T05:05:26;38.33;35.04;41.61;;
66747;Laerm;53658;50.742;10.864;2023-06-04T05:07:52;38.42;35.36;41.75;;
66747;Laerm;53658;50.742;10.864;2023-06-04T05:10:22;38.39;35.01;41.11;;
66747;Laerm;53658;50.742;10.864;2023-06-04T05:12:55;38.51;35.36;40.71;;
66747;Laerm;53658;50.742;10.864;2023-06-04T05:15:25;38.60;35.94;41.14;;
66747;Laerm;53658;50.742;10.864;2023-06-04T05:17:54;38.76;35.66;41.68;;
66747;Laerm;53658;50.742;10.864;2023-06-04T05:20:22;38.91;35.94;40.71;;
66747;Laerm;53658;50.742;10.864;2023-06-04T05:22:49;39.08;36.20;41.06;;
66747;Laerm;53658;50.742;10.864;2023-06-04T05:25:16;39.28;37.12;42.35;;
66747;Laerm;53658;50.742;10.864;2023-06-04T05:27:43;39.35;37.12;41.14;;
66747;Laerm;53658;50.742;10.864;2023-06-04T05:30:11;39.50;37.12;41.61;;
66747;Laerm;53658;50.742;10.864;2023-06-04T05:32:37;39.56;36.91;41.46;;
66747;Laerm;53658;50.742;10.864;2023-06-04T05:35:08;39.64;37.52;41.46;;
66747;Laerm;53658;50.742;10.864;2023-06-04T05:37:36;39.66;37.17;41.46;;
66747;Laerm;53658;50.742;10.864;2023-06-04T05:40:05;39.69;37.32;41.38;;
66747;Laerm;53658;50.742;10.864;2023-06-04T05:42:32;39.63;37.32;41.38;;
66747;Laerm;53658;50.742;10.864;2023-06-04T05:44:58;39.72;37.32;41.46;;
66747;Laerm;53658;50.742;10.864;2023-06-04T05:47:25;39.72;37.12;41.68;;
66747;Laerm;53658;50.742;10.864;2023-06-04T05:49:51;39.76;37.32;41.41;;
66747;Laerm;53658;50.742;10.864;2023-06-04T05:52:17;39.77;37.12;41.75;;
66747;Laerm;53658;50.742;10.864;2023-06-04T05:54:45;39.76;37.32;41.68;;
66747;Laerm;53658;50.742;10.864;2023-06-04T05:57:11;39.75;37.32;41.68;;
66747;Laerm;53658;50.742;10.864;2023-06-04T05:59:37;39.74;37.32;41.61;;
66747;Laerm;53658;50.742;10.864;2023-06-04T06:02:06;39.73;37.12;41.38;;
66747;Laerm;53658;50.742;10.864;2023-06-04T06:04:33;39.76;37.70;41.38;;
66747;Laerm;53658;50.742;10.864;2023-06-04T06:06:59;39.84;37.32;41.82;;
66747;Laerm;53658;50.742;10.864;2023-06-04T06:09:25;39.94;37.70;41.82;;
66747;Laerm;53658;50.742;10.864;2023-06-04T06:11:51;39.97;37.52;45.89;;
66747;Laerm;53658;50.742;10.864;2023-06-04T06:14:17;39.70;37.12;41.75;;
66747;Laerm;53658;50.742;10.864;2023-06-04T06:16:43;39.56;35.94;41.82;;
66747;Laerm;53658;50.742;10.864;2023-06-04T06:19:09;39.23;35.94;41.61;;
66747;Laerm;53658;50.742;10.864;2023-06-04T06:21:36;39.87;30.89;67.77;;
66747;Laerm;53658;50.742;10.864;2023-06-04T06:24:03;38.93;35.36;41.14;;
66747;Laerm;53658;50.742;10.864;2023-06-04T06:26:30;38.76;34.69;41.14;;
66747;Laerm;53658;50.742;10.864;2023-06-04T06:28:58;38.54;34.69;40.96;;
66747;Laerm;53658;50.742;10.864;2023-06-04T06:31:24;38.39;34.31;43.09;;
66747;Laerm;53658;50.742;10.864;2023-06-04T06:33:50;38.34;34.31;40.89;;
66747;Laerm;53658;50.742;10.864;2023-06-04T06:36:16;38.17;32.93;41.06;;
66747;Laerm;53658;50.742;10.864;2023-06-04T06:38:44;38.03;33.90;40.54;;
66747;Laerm;53658;50.742;10.864;2023-06-04T06:41:12;38.02;33.44;40.53;;
66747;Laerm;53658;50.742;10.864;2023-06-04T06:43:38;37.91;33.44;40.62;;
66747;Laerm;53658;50.742;10.864;2023-06-04T06:46:04;37.89;31.68;40.98;;
66747;Laerm;53658;50.742;10.864;2023-06-04T06:48:30;38.24;32.35;64.89;;
66747;Laerm;53658;50.742;10.864;2023-06-04T06:50:56;37.56;32.35;40.62;;
66747;Laerm;53658;50.742;10.864;2023-06-04T06:53:21;37.46;31.33;51.64;;
66747;Laerm;53658;50.742;10.864;2023-06-04T06:55:47;37.33;29.92;43.99;;
66747;Laerm;53658;50.742;10.864;2023-06-04T06:58:13;37.26;31.68;39.92;;
66747;Laerm;53658;50.742;10.864;2023-06-04T07:00:39;37.23;31.68;40.23;;
66747;Laerm;53658;50.742;10.864;2023-06-04T07:03:05;37.23;31.68;55.60;;
66747;Laerm;53658;50.742;10.864;2023-06-04T07:05:31;37.02;30.89;39.92;;
66747;Laerm;53658;50.742;10.864;2023-06-04T07:07:57;37.01;29.92;40.03;;
66747;Laerm;53658;50.742;10.864;2023-06-04T07:10:24;36.93;28.67;40.13;;
66747;Laerm;53658;50.742;10.864;2023-06-04T07:12:50;36.95;29.92;40.23;;
66747;Laerm;53658;50.742;10.864;2023-06-04T07:15:17;36.93;30.89;40.53;;
66747;Laerm;53658;50.742;10.864;2023-06-04T07:17:44;36.77;29.92;46.45;;
66747;Laerm;53658;50.742;10.864;2023-06-04T07:20:10;36.80;28.67;47.08;;
66747;Laerm;53658;50.742;10.864;2023-06-04T07:22:36;36.89;26.91;40.62;;
66747;Laerm;53658;50.742;10.864;2023-06-04T07:25:02;36.69;28.67;39.92;;
66747;Laerm;53658;50.742;10.864;2023-06-04T07:27:28;36.69;26.91;39.81;;
66747;Laerm;53658;50.742;10.864;2023-06-04T07:29:54;36.67;28.67;51.97;;
66747;Laerm;53658;50.742;10.864;2023-06-04T07:32:20;36.64;28.67;40.13;;
66747;Laerm;53658;50.742;10.864;2023-06-04T07:34:46;36.91;29.92;41.89;;
66747;Laerm;53658;50.742;10.864;2023-06-04T07:37:12;36.65;28.67;40.43;;
66747;Laerm;53658;50.742;10.864;2023-06-04T07:39:39;37.05;28.67;41.75;;
66747;Laerm;53658;50.742;10.864;2023-06-04T07:42:06;37.04;28.67;44.35;;
66747;Laerm;53658;50.742;10.864;2023-06-04T07:44:37;36.78;26.91;41.68;;
66747;Laerm;53658;50.742;10.864;2023-06-04T07:47:04;37.36;26.91;42.29;;
66747;Laerm;53658;50.742;10.864;2023-06-04T07:49:30;37.93;28.67;43.99;;
66747;Laerm;53658;50.742;10.864;2023-06-04T07:51:56;36.46;26.91;40.98;;
66747;Laerm;53658;50.742;10.864;2023-06-04T07:54:22;36.70;29.92;41.96;;
66747;Laerm;53658;50.742;10.864;2023-06-04T07:56:48;36.37;23.90;41.06;;
66747;Laerm;53658;50.742;10.864;2023-06-04T07:59:14;36.84;29.92;42.16;;
66747;Laerm;53658;50.742;10.864;2023-06-04T08:01:39;37.86;26.91;43.19;;
66747;Laerm;53658;50.742;10.864;2023-06-04T08:04:06;36.58;28.67;43.04;;
66747;Laerm;53658;50.742;10.864;2023-06-04T08:06:32;37.07;28.32;42.76;;
66747;Laerm;53658;50.742;10.864;2023-06-04T08:08:58;36.53;23.90;41.61;;
66747;Laerm;53658;50.742;10.864;2023-06-04T08:11:25;37.08;23.90;42.88;;
66747;Laerm;53658;50.742;10.864;2023-06-04T08:13:52;36.52;28.67;42.29;;
66747;Laerm;53658;50.742;10.864;2023-06-04T08:16:19;36.98;28.67;42.88;;
66747;Laerm;53658;50.742;10.864;2023-06-04T08:19:05;36.48;26.91;58.84;;
66747;Laerm;53658;50.742;10.864;2023-06-04T08:21:42;36.69;28.67;41.30;;
66747;Laerm;53658;50.742;10.864;2023-06-04T08:24:15;36.50;28.67;41.30;;
66747;Laerm;53658;50.742;10.864;2023-06-04T08:27:00;36.36;26.91;40.98;;
66747;Laerm;53658;50.742;10.864;2023-06-04T08:29:43;37.01;28.67;42.88;;
66747;Laerm;53658;50.742;10.864;2023-06-04T08:32:30;37.71;28.67;43.24;;
66747;Laerm;53658;50.742;10.864;2023-06-04T08:34:57;37.20;28.67;43.19;;
66747;Laerm;53658;50.742;10.864;2023-06-04T08:37:24;36.89;28.67;42.93;;
66747;Laerm;53658;50.742;10.864;2023-06-04T08:39:50;38.12;26.91;42.71;;
66747;Laerm;53658;50.742;10.864;2023-06-04T08:42:30;36.94;23.90;41.61;;
66747;Laerm;53658;50.742;10.864;2023-06-04T08:44:58;37.17;26.91;42.41;;
66747;Laerm;53658;50.742;10.864;2023-06-04T08:47:25;38.92;30.89;46.02;;
66747;Laerm;53658;50.742;10.864;2023-06-04T08:49:54;38.38;26.91;44.03;;
66747;Laerm;53658;50.742;10.864;2023-06-04T08:52:20;37.53;28.67;43.34;;
66747;Laerm;53658;50.742;10.864;2023-06-04T08:54:51;36.71;26.91;41.68;;
66747;Laerm;53658;50.742;10.864;2023-06-04T08:57:18;36.77;26.91;41.48;;
66747;Laerm;53658;50.742;10.864;2023-06-04T08:59:48;38.36;26.91;43.54;;
66747;Laerm;53658;50.742;10.864;2023-06-04T09:02:16;36.54;28.67;41.11;;
66747;Laerm;53658;50.742;10.864;2023-06-04T09:04:43;36.92;28.67;42.09;;
66747;Laerm;53658;50.742;10.864;2023-06-04T09:07:12;38.22;26.91;44.03;;
66747;Laerm;53658;50.742;10.864;2023-06-04T09:09:40;36.92;23.90;43.54;;
66747;Laerm;53658;50.742;10.864;2023-06-04T09:12:10;36.79;5.00;42.29;;
66747;Laerm;53658;50.742;10.864;2023-06-04T09:14:37;36.86;23.90;42.71;;
66747;Laerm;53658;50.742;10.864;2023-06-04T09:17:02;36.82;26.91;42.47;;
66747;Laerm;53658;50.742;10.864;2023-06-04T09:19:28;37.32;28.32;43.24;;
66747;Laerm;53658;50.742;10.864;2023-06-04T09:21:57;37.17;23.90;43.68;;
66747;Laerm;53658;50.742;10.864;2023-06-04T09:24:25;36.35;28.67;40.80;;
66747;Laerm;53658;50.742;10.864;2023-06-04T09:26:51;36.49;26.91;42.53;;
66747;Laerm;53658;50.742;10.864;2023-06-04T09:29:18;36.27;26.91;42.82;;
66747;Laerm;53658;50.742;10.864;2023-06-04T09:31:56;36.36;26.91;41.61;;
66747;Laerm;53658;50.742;10.864;2023-06-04T09:34:29;37.50;26.91;44.27;;
66747;Laerm;53658;50.742;10.864;2023-06-04T09:36:55;36.74;23.90;42.09;;
66747;Laerm;53658;50.742;10.864;2023-06-04T09:39:22;36.58;26.91;43.14;;
66747;Laerm;53658;50.742;10.864;2023-06-04T09:42:02;37.56;26.91;44.73;;
66747;Laerm;53658;50.742;10.864;2023-06-04T09:44:31;36.66;23.90;43.29;;
66747;Laerm;53658;50.742;10.864;2023-06-04T09:47:08;37.14;26.91;44.03;;
66747;Laerm;53658;50.742;10.864;2023-06-04T09:49:43;37.14;28.67;44.19;;
66747;Laerm;53658;50.742;10.864;2023-06-04T09:52:10;36.23;26.91;42.09;;
66747;Laerm;53658;50.742;10.864;2023-06-04T09:54:37;36.08;23.55;40.80;;
66747;Laerm;53658;50.742;10.864;2023-06-04T09:57:15;36.36;23.90;42.93;;
66747;Laerm;53658;50.742;10.864;2023-06-04T09:59:44;37.42;28.67;43.68;;
66747;Laerm;53658;50.742;10.864;2023-06-04T10:02:12;35.97;28.67;40.89;;
66747;Laerm;53658;50.742;10.864;2023-06-04T10:04:41;36.11;23.90;40.98;;
66747;Laerm;53658;50.742;10.864;2023-06-04T10:07:11;36.12;23.90;41.68;;
66747;Laerm;53658;50.742;10.864;2023-06-04T10:09:43;36.29;23.90;41.68;;
66747;Laerm;53658;50.742;10.864;2023-06-04T10:12:16;36.17;26.91;41.30;;
66747;Laerm;53658;50.742;10.864;2023-06-04T10:14:56;35.98;26.91;40.71;;
66747;Laerm;53658;50.742;10.864;2023-06-04T10:17:25;36.32;26.91;41.30;;
66747;Laerm;53658;50.742;10.864;2023-06-04T10:19:54;36.24;23.90;41.96;;
66747;Laerm;53658;50.742;10.864;2023-06-04T10:22:21;36.41;23.55;42.53;;
66747;Laerm;53658;50.742;10.864;2023-06-04T10:24:48;36.40;26.91;42.41;;
66747;Laerm;53658;50.742;10.864;2023-06-04T10:27:14;37.05;26.91;42.71;;
66747;Laerm;53658;50.742;10.864;2023-06-04T10:29:42;38.44;29.92;44.65;;
66747;Laerm;53658;50.742;10.864;2023-06-04T10:32:09;35.99;23.90;42.09;;
66747;Laerm;53658;50.742;10.864;2023-06-04T10:34:35;36.28;23.90;42.65;;
66747;Laerm;53658;50.742;10.864;2023-06-04T10:37:02;36.67;23.90;41.82;;
66747;Laerm;53658;50.742;10.864;2023-06-04T10:39:30;35.92;26.91;40.23;;
66747;Laerm;53658;50.742;10.864;2023-06-04T10:42:02;36.42;23.90;43.42;;
66747;Laerm;53658;50.742;10.864;2023-06-04T10:44:47;36.69;26.91;42.47;;
66747;Laerm;53658;50.742;10.864;2023-06-04T10:47:20;36.62;28.32;42.35;;
66747;Laerm;53658;50.742;10.864;2023-06-04T10:49:48;36.70;23.90;42.35;;
66747;Laerm;53658;50.742;10.864;2023-06-04T10:52:14;37.34;26.91;42.53;;
66747;Laerm;53658;50.742;10.864;2023-06-04T10:54:42;36.72;26.91;41.68;;
66747;Laerm;53658;50.742;10.864;2023-06-04T10:59:38;37.35;23.90;42.71;;
66747;Laerm;53658;50.742;10.864;2023-06-04T11:02:06;35.79;5.00;39.46;;
66747;Laerm;53658;50.742;10.864;2023-06-04T11:04:32;36.41;23.90;42.03;;
66747;Laerm;53658;50.742;10.864;2023-06-04T11:09:31;36.31;26.91;41.53;;
66747;Laerm;53658;50.742;10.864;2023-06-04T11:11:58;35.89;23.90;39.81;;
66747;Laerm;53658;50.742;10.864;2023-06-04T11:14:24;36.44;5.00;42.29;;
66747;Laerm;53658;50.742;10.864;2023-06-04T11:16:50;36.35;23.90;42.35;;
66747;Laerm;53658;50.742;10.864;2023-06-04T11:19:16;36.64;28.67;41.82;;
66747;Laerm;53658;50.742;10.864;2023-06-04T11:21:43;36.73;26.91;43.90;;
66747;Laerm;53658;50.742;10.864;2023-06-04T11:24:11;36.95;26.91;48.96;;
66747;Laerm;53658;50.742;10.864;2023-06-04T11:26:37;36.49;26.91;43.34;;
66747;Laerm;53658;50.742;10.864;2023-06-04T11:29:11;37.28;5.00;44.51;;
66747;Laerm;53658;50.742;10.864;2023-06-04T11:31:44;36.46;26.91;42.71;;
66747;Laerm;53658;50.742;10.864;2023-06-04T11:34:24;36.83;23.90;43.09;;
66747;Laerm;53658;50.742;10.864;2023-06-04T11:36:51;36.01;26.91;41.46;;
66747;Laerm;53658;50.742;10.864;2023-06-04T11:39:22;37.23;23.90;44.03;;
66747;Laerm;53658;50.742;10.864;2023-06-04T11:41:51;36.42;26.91;42.16;;
66747;Laerm;53658;50.742;10.864;2023-06-04T11:44:19;36.04;23.90;41.46;;
66747;Laerm;53658;50.742;10.864;2023-06-04T11:46:46;36.25;23.90;41.53;;
66747;Laerm;53658;50.742;10.864;2023-06-04T11:49:18;37.97;5.00;45.91;;
66747;Laerm;53658;50.742;10.864;2023-06-04T11:51:48;38.09;26.91;45.23;;
66747;Laerm;53658;50.742;10.864;2023-06-04T11:54:16;36.72;28.67;44.31;;
66747;Laerm;53658;50.742;10.864;2023-06-04T11:56:44;36.60;23.90;42.53;;
66747;Laerm;53658;50.742;10.864;2023-06-04T11:59:12;37.14;5.00;43.44;;
66747;Laerm;53658;50.742;10.864;2023-06-04T12:01:43;36.31;26.91;41.14;;
66747;Laerm;53658;50.742;10.864;2023-06-04T12:04:13;36.85;26.91;42.19;;
66747;Laerm;53658;50.742;10.864;2023-06-04T12:06:53;35.89;23.90;39.46;;
66747;Laerm;53658;50.742;10.864;2023-06-04T12:09:21;36.46;28.32;42.03;;
66747;Laerm;53658;50.742;10.864;2023-06-04T12:11:48;38.69;28.67;48.21;;
66747;Laerm;53658;50.742;10.864;2023-06-04T12:14:17;36.46;23.90;41.96;;
66747;Laerm;53658;50.742;10.864;2023-06-04T12:17:00;36.47;26.91;42.29;;
66747;Laerm;53658;50.742;10.864;2023-06-04T12:19:27;36.51;23.90;42.53;;
66747;Laerm;53658;50.742;10.864;2023-06-04T12:22:07;37.60;26.91;44.51;;
66747;Laerm;53658;50.742;10.864;2023-06-04T12:24:47;36.76;23.90;42.03;;
66747;Laerm;53658;50.742;10.864;2023-06-04T12:27:13;36.65;23.90;42.29;;
66747;Laerm;53658;50.742;10.864;2023-06-04T12:29:39;36.13;26.91;41.68;;
66747;Laerm;53658;50.742;10.864;2023-06-04T12:32:08;36.53;26.91;41.30;;
66747;Laerm;53658;50.742;10.864;2023-06-04T12:34:35;36.45;23.90;42.82;;
66747;Laerm;53658;50.742;10.864;2023-06-04T12:37:02;36.20;23.90;42.29;;
66747;Laerm;53658;50.742;10.864;2023-06-04T12:39:35;36.31;26.91;42.09;;
66747;Laerm;53658;50.742;10.864;2023-06-04T12:42:03;37.82;28.67;43.81;;
66747;Laerm;53658;50.742;10.864;2023-06-04T12:44:30;38.43;26.91;45.66;;
66747;Laerm;53658;50.742;10.864;2023-06-04T12:46:56;36.34;26.91;42.59;;
66747;Laerm;53658;50.742;10.864;2023-06-04T12:49:23;37.09;26.91;42.76;;
66747;Laerm;53658;50.742;10.864;2023-06-04T12:51:49;36.54;23.90;42.53;;
66747;Laerm;53658;50.742;10.864;2023-06-04T12:54:16;36.89;26.91;42.35;;
66747;Laerm;53658;50.742;10.864;2023-06-04T12:56:43;36.55;26.91;42.41;;
66747;Laerm;53658;50.742;10.864;2023-06-04T12:59:11;36.97;23.90;43.63;;
66747;Laerm;53658;50.742;10.864;2023-06-04T13:01:37;36.71;23.90;43.19;;
66747;Laerm;53658;50.742;10.864;2023-06-04T13:04:04;36.05;23.90;40.71;;
66747;Laerm;53658;50.742;10.864;2023-06-04T13:06:33;37.19;28.67;44.62;;
66747;Laerm;53658;50.742;10.864;2023-06-04T13:08:59;37.31;26.91;42.88;;
66747;Laerm;53658;50.742;10.864;2023-06-04T13:11:26;36.10;23.90;42.53;;
66747;Laerm;53658;50.742;10.864;2023-06-04T13:13:52;36.24;5.00;42.09;;
66747;Laerm;53658;50.742;10.864;2023-06-04T13:16:18;36.48;23.90;42.03;;
66747;Laerm;53658;50.742;10.864;2023-06-04T13:18:43;37.50;26.91;43.81;;
66747;Laerm;53658;50.742;10.864;2023-06-04T13:21:09;36.96;23.90;49.07;;
66747;Laerm;53658;50.742;10.864;2023-06-04T13:23:35;36.42;23.90;42.03;;
66747;Laerm;53658;50.742;10.864;2023-06-04T13:26:01;36.80;26.91;43.04;;
66747;Laerm;53658;50.742;10.864;2023-06-04T13:28:27;37.36;26.91;44.31;;
66747;Laerm;53658;50.742;10.864;2023-06-04T13:30:53;37.85;23.90;44.51;;
66747;Laerm;53658;50.742;10.864;2023-06-04T13:33:19;36.93;26.91;42.71;;
66747;Laerm;53658;50.742;10.864;2023-06-04T13:35:47;37.31;26.91;43.99;;
66747;Laerm;53658;50.742;10.864;2023-06-04T13:38:12;37.36;26.91;43.28;;
66747;Laerm;53658;50.742;10.864;2023-06-04T13:40:38;37.24;26.91;44.69;;
66747;Laerm;53658;50.742;10.864;2023-06-04T13:43:05;37.98;28.67;44.47;;
66747;Laerm;53658;50.742;10.864;2023-06-04T13:45:32;36.14;23.90;40.98;;